• Join FlightAware (Why Join?)
  • Login
  • US Flag 
03:26PM EDT


 

Airport Tracker/Info


-or-


 

Live Flight TrackerFlight Track Log ✈ N8854L ✈ 23-Nov-2013 ✈ KBYG - KCOD

Flight Track Log - Related Links

Times and Time Zones

All times are in EST time to prevent confusion due to time zone crossing. See the N8854L flight status page for this flight to view local times or setup timezone preferences in your user account.

Time Position Orientation Groundspeed Altitude Reporting Facility
EST Latitude Longitude Course Direction KTS MPH feet Rate Location/Type
07:19PM 44.3998 -106.9912 247° West  Level Estimated
07:20PM 44.3762 -107.0219 223° Southwest  Level FlightAware Approximate
07:21PM 44.3798 -107.0667 245° Southwest  Level Estimated
07:22PM 44.3565 -107.0979 224° Southwest  Level FlightAware Approximate
07:22PM 44.0792 -106.9822 227° Southwest 82 94 11,600  Level Salt Lake Center
07:23PM 44.3607 -107.1426 243° Southwest  Level Estimated
07:23PM 44.0628 -107.0044 224° Southwest 83 96 11,900  Level Salt Lake Center
07:24PM 44.3387 -107.1756 227° Southwest  Level FlightAware Approximate
07:24PM 44.0428 -107.0361 229° Southwest 86 99 11,900  Level Salt Lake Center
07:25PM 44.3168 -107.2087 227° Southwest  Level FlightAware Approximate
07:25PM 44.0267 -107.0706 237° Southwest 94 108 11,900  Level Salt Lake Center
07:26PM 44.2949 -107.2417 227° Southwest  Level FlightAware Approximate
07:26PM 44.0222 -107.1139 262° West 105 121 11,900  Level Salt Lake Center
07:27PM 44.2730 -107.2747 227° Southwest  Level FlightAware Approximate
07:27PM 44.0275 -107.1558 280° West 109 125 12,000  Level Salt Lake Center
07:28PM 44.0342 -107.1961 283° West 109 125 11,900 -180 Descending Salt Lake Center
07:29PM 44.0464 -107.2389 292° West 113 130 11,700 -240 Descending Salt Lake Center
07:30PM 44.0600 -107.2839 293° West 119 137 11,500 -300 Descending Salt Lake Center
07:31PM 44.0747 -107.3283 295° West 124 143 11,200 -300 Descending Salt Lake Center
07:32PM 44.0894 -107.3722 295° West 125 144 11,000 -240 Descending Salt Lake Center
07:33PM 44.1042 -107.4169 295° West 126 145 10,800 -240 Descending Salt Lake Center
07:34PM 44.1175 -107.4611 293° West 126 145 10,600 -240 Descending Salt Lake Center
07:35PM 44.1308 -107.5150 289° West 124 143 10,400 -180 Descending Salt Lake Center
07:36PM 44.1433 -107.5572 292° West 122 140 10,300 -60 Descending Salt Lake Center
07:37PM 44.1583 -107.5986 297° West 121 139 10,300  Level Salt Lake Center
07:38PM 44.1728 -107.6397 296° West 118 136 10,400 60 Climbing Salt Lake Center
07:39PM 44.1817 -107.6750 289° West 111 128 10,500  Climbing Salt Lake Center
07:41PM 44.1917 -107.7167 289° West 110 127 10,400 -60 Descending Salt Lake Center
07:42PM 44.2039 -107.7594 292° West 114 131 10,400  Level Salt Lake Center
07:43PM 44.2150 -107.8011 290° West 115 132 10,500  Climbing Salt Lake Center
07:44PM 44.2247 -107.8428 288° West 114 131 10,500  Level Salt Lake Center
07:45PM 44.2339 -107.8856 287° West 114 131 10,500  Level Salt Lake Center
07:46PM 44.2422 -107.9281 285° West 114 131 10,600  Climbing Salt Lake Center
07:47PM 44.2533 -107.9789 287° West 114 131 10,600 -60 Level Salt Lake Center
07:48PM 44.2650 -108.0228 290° West 116 133 10,500 -60 Descending Salt Lake Center
07:49PM 44.2756 -108.0661 289° West 118 136 10,500  Level Salt Lake Center
07:50PM 44.2889 -108.1072 294° West 117 135 10,500  Level Salt Lake Center
07:51PM 44.3006 -108.1472 292° West 115 132 10,600  Climbing Salt Lake Center
07:52PM 44.3111 -108.1889 290° West 114 131 10,600  Level Salt Lake Center
07:53PM 44.3222 -108.2308 290° West 115 132 10,600  Level Salt Lake Center
07:54PM 44.3347 -108.2722 293° West 115 132 10,600  Level Salt Lake Center
07:55PM 44.3472 -108.3144 293° West 116 133 10,600  Level Salt Lake Center
07:56PM 44.3606 -108.3556 294° West 116 133 10,600  Level Salt Lake Center
07:57PM 44.3739 -108.3967 294° West 116 133 10,600  Level Salt Lake Center
07:58PM 44.3906 -108.4458 295° West 116 133 10,600  Level Salt Lake Center
07:59PM 44.4022 -108.4883 291° West 117 135 10,600  Level Salt Lake Center
08:00PM 44.4153 -108.5306 293° West 118 136 10,600 -120 Level Salt Lake Center
08:01PM 44.4278 -108.5739 292° West 118 136 10,400 -240 Descending Salt Lake Center
08:02PM 44.4408 -108.6189 292° West 121 139 10,200 -240 Descending Salt Lake Center